sensor_id;sensor_type;location;lat;lon;timestamp;P1;durP1;ratioP1;P2;durP2;ratioP2
438;SDS011;206;48.782;9.252;2022-07-26T00:02:05;4.23;;;3.27;;
438;SDS011;206;48.782;9.252;2022-07-26T00:04:31;5.90;;;1.97;;
438;SDS011;206;48.782;9.252;2022-07-26T00:06:57;4.00;;;2.03;;
438;SDS011;206;48.782;9.252;2022-07-26T00:09:22;2.90;;;2.50;;
438;SDS011;206;48.782;9.252;2022-07-26T00:11:48;1.73;;;1.70;;
438;SDS011;206;48.782;9.252;2022-07-26T00:14:14;4.83;;;2.33;;
438;SDS011;206;48.782;9.252;2022-07-26T00:16:39;5.17;;;2.30;;
438;SDS011;206;48.782;9.252;2022-07-26T00:19:05;6.60;;;2.70;;
438;SDS011;206;48.782;9.252;2022-07-26T00:21:31;9.67;;;2.60;;
438;SDS011;206;48.782;9.252;2022-07-26T00:24:03;3.80;;;2.00;;
438;SDS011;206;48.782;9.252;2022-07-26T00:26:30;4.53;;;3.23;;
438;SDS011;206;48.782;9.252;2022-07-26T00:28:56;5.00;;;2.87;;
438;SDS011;206;48.782;9.252;2022-07-26T00:31:22;3.70;;;2.37;;
438;SDS011;206;48.782;9.252;2022-07-26T00:33:48;5.03;;;1.63;;
438;SDS011;206;48.782;9.252;2022-07-26T00:36:13;3.80;;;2.33;;
438;SDS011;206;48.782;9.252;2022-07-26T00:38:39;2.50;;;2.00;;
438;SDS011;206;48.782;9.252;2022-07-26T00:41:05;1.30;;;1.30;;
438;SDS011;206;48.782;9.252;2022-07-26T00:43:31;6.83;;;2.33;;
438;SDS011;206;48.782;9.252;2022-07-26T00:45:57;3.13;;;2.87;;
438;SDS011;206;48.782;9.252;2022-07-26T00:48:23;5.10;;;2.30;;
438;SDS011;206;48.782;9.252;2022-07-26T00:50:49;3.90;;;2.20;;
438;SDS011;206;48.782;9.252;2022-07-26T00:53:18;4.67;;;2.00;;
438;SDS011;206;48.782;9.252;2022-07-26T00:55:44;3.37;;;1.90;;
438;SDS011;206;48.782;9.252;2022-07-26T00:58:10;4.07;;;1.93;;
438;SDS011;206;48.782;9.252;2022-07-26T01:00:37;2.43;;;1.63;;
438;SDS011;206;48.782;9.252;2022-07-26T01:03:03;2.27;;;1.70;;
438;SDS011;206;48.782;9.252;2022-07-26T01:05:29;3.50;;;2.13;;
438;SDS011;206;48.782;9.252;2022-07-26T01:07:56;4.60;;;1.50;;
438;SDS011;206;48.782;9.252;2022-07-26T01:10:22;3.33;;;1.93;;
438;SDS011;206;48.782;9.252;2022-07-26T01:12:48;4.50;;;2.20;;
438;SDS011;206;48.782;9.252;2022-07-26T01:15:14;2.80;;;2.30;;
438;SDS011;206;48.782;9.252;2022-07-26T01:17:41;6.50;;;1.87;;
438;SDS011;206;48.782;9.252;2022-07-26T01:20:07;2.10;;;1.40;;
438;SDS011;206;48.782;9.252;2022-07-26T01:22:34;3.80;;;1.33;;
438;SDS011;206;48.782;9.252;2022-07-26T01:25:00;9.27;;;2.03;;
438;SDS011;206;48.782;9.252;2022-07-26T01:27:26;3.40;;;1.87;;
438;SDS011;206;48.782;9.252;2022-07-26T01:29:51;2.13;;;1.53;;
438;SDS011;206;48.782;9.252;2022-07-26T01:32:17;2.03;;;1.80;;
438;SDS011;206;48.782;9.252;2022-07-26T01:34:43;2.10;;;1.93;;
438;SDS011;206;48.782;9.252;2022-07-26T01:37:09;3.10;;;2.03;;
438;SDS011;206;48.782;9.252;2022-07-26T01:39:36;3.83;;;1.60;;
438;SDS011;206;48.782;9.252;2022-07-26T01:42:02;1.80;;;1.70;;
438;SDS011;206;48.782;9.252;2022-07-26T01:44:27;4.00;;;2.50;;
438;SDS011;206;48.782;9.252;2022-07-26T01:46:53;5.23;;;1.93;;
438;SDS011;206;48.782;9.252;2022-07-26T01:49:19;3.63;;;2.20;;
438;SDS011;206;48.782;9.252;2022-07-26T01:51:44;2.17;;;1.80;;
438;SDS011;206;48.782;9.252;2022-07-26T01:54:10;1.87;;;1.80;;
438;SDS011;206;48.782;9.252;2022-07-26T01:56:35;2.83;;;2.00;;
438;SDS011;206;48.782;9.252;2022-07-26T01:59:01;2.53;;;2.10;;
438;SDS011;206;48.782;9.252;2022-07-26T02:01:27;2.33;;;2.03;;
438;SDS011;206;48.782;9.252;2022-07-26T02:03:53;2.17;;;1.97;;
438;SDS011;206;48.782;9.252;2022-07-26T02:06:18;2.30;;;2.07;;
438;SDS011;206;48.782;9.252;2022-07-26T02:08:44;1.90;;;1.90;;
438;SDS011;206;48.782;9.252;2022-07-26T02:11:10;19.43;;;2.53;;
438;SDS011;206;48.782;9.252;2022-07-26T02:13:36;2.00;;;1.80;;
438;SDS011;206;48.782;9.252;2022-07-26T02:16:04;4.00;;;2.23;;
438;SDS011;206;48.782;9.252;2022-07-26T02:18:32;3.00;;;2.10;;
438;SDS011;206;48.782;9.252;2022-07-26T02:20:59;4.60;;;2.50;;
438;SDS011;206;48.782;9.252;2022-07-26T02:23:25;3.40;;;2.10;;
438;SDS011;206;48.782;9.252;2022-07-26T02:25:52;2.13;;;1.93;;
438;SDS011;206;48.782;9.252;2022-07-26T02:28:18;2.40;;;2.13;;
438;SDS011;206;48.782;9.252;2022-07-26T02:30:45;5.40;;;1.90;;
438;SDS011;206;48.782;9.252;2022-07-26T02:33:11;3.37;;;1.60;;
438;SDS011;206;48.782;9.252;2022-07-26T02:35:37;1.80;;;1.60;;
438;SDS011;206;48.782;9.252;2022-07-26T02:38:03;4.90;;;2.83;;
438;SDS011;206;48.782;9.252;2022-07-26T02:40:30;3.70;;;1.77;;
438;SDS011;206;48.782;9.252;2022-07-26T02:42:57;2.00;;;1.60;;
438;SDS011;206;48.782;9.252;2022-07-26T02:45:23;2.83;;;1.63;;
438;SDS011;206;48.782;9.252;2022-07-26T02:47:49;1.90;;;1.60;;
438;SDS011;206;48.782;9.252;2022-07-26T02:50:16;4.37;;;2.20;;
438;SDS011;206;48.782;9.252;2022-07-26T02:52:46;2.97;;;1.63;;
438;SDS011;206;48.782;9.252;2022-07-26T02:55:14;5.03;;;1.93;;
438;SDS011;206;48.782;9.252;2022-07-26T02:57:40;2.50;;;2.10;;
438;SDS011;206;48.782;9.252;2022-07-26T03:00:06;4.50;;;2.20;;
438;SDS011;206;48.782;9.252;2022-07-26T03:02:33;3.77;;;1.80;;
438;SDS011;206;48.782;9.252;2022-07-26T03:04:59;3.00;;;2.67;;
438;SDS011;206;48.782;9.252;2022-07-26T03:07:26;3.60;;;1.77;;
438;SDS011;206;48.782;9.252;2022-07-26T03:09:52;4.53;;;2.13;;
438;SDS011;206;48.782;9.252;2022-07-26T03:12:17;8.40;;;2.03;;
438;SDS011;206;48.782;9.252;2022-07-26T03:14:43;2.13;;;1.97;;
438;SDS011;206;48.782;9.252;2022-07-26T03:17:08;4.70;;;2.00;;
438;SDS011;206;48.782;9.252;2022-07-26T03:19:34;5.00;;;1.90;;
438;SDS011;206;48.782;9.252;2022-07-26T03:22:00;9.20;;;3.37;;
438;SDS011;206;48.782;9.252;2022-07-26T03:24:25;3.20;;;2.03;;
438;SDS011;206;48.782;9.252;2022-07-26T03:26:51;4.00;;;2.10;;
438;SDS011;206;48.782;9.252;2022-07-26T03:29:16;3.93;;;2.30;;
438;SDS011;206;48.782;9.252;2022-07-26T03:31:42;1.93;;;1.83;;
438;SDS011;206;48.782;9.252;2022-07-26T03:34:07;2.43;;;1.50;;
438;SDS011;206;48.782;9.252;2022-07-26T03:36:33;1.90;;;1.53;;
438;SDS011;206;48.782;9.252;2022-07-26T03:38:59;3.20;;;1.57;;
438;SDS011;206;48.782;9.252;2022-07-26T03:41:24;2.57;;;2.23;;
438;SDS011;206;48.782;9.252;2022-07-26T03:43:50;3.20;;;2.53;;
438;SDS011;206;48.782;9.252;2022-07-26T03:46:16;2.23;;;1.70;;
438;SDS011;206;48.782;9.252;2022-07-26T03:48:41;2.70;;;2.27;;
438;SDS011;206;48.782;9.252;2022-07-26T03:51:07;1.57;;;1.40;;
438;SDS011;206;48.782;9.252;2022-07-26T03:53:32;3.47;;;2.00;;
438;SDS011;206;48.782;9.252;2022-07-26T03:55:58;2.30;;;2.17;;
438;SDS011;206;48.782;9.252;2022-07-26T03:58:43;2.60;;;2.10;;
438;SDS011;206;48.782;9.252;2022-07-26T04:01:08;2.87;;;2.40;;
438;SDS011;206;48.782;9.252;2022-07-26T04:03:34;3.40;;;3.10;;
438;SDS011;206;48.782;9.252;2022-07-26T04:06:00;3.33;;;2.60;;
438;SDS011;206;48.782;9.252;2022-07-26T04:08:26;2.17;;;1.60;;
438;SDS011;206;48.782;9.252;2022-07-26T04:10:51;3.33;;;1.80;;
438;SDS011;206;48.782;9.252;2022-07-26T04:13:18;2.47;;;1.90;;
438;SDS011;206;48.782;9.252;2022-07-26T04:15:44;2.30;;;1.63;;
438;SDS011;206;48.782;9.252;2022-07-26T04:18:10;3.97;;;1.80;;
438;SDS011;206;48.782;9.252;2022-07-26T04:20:38;10.60;;;2.80;;
438;SDS011;206;48.782;9.252;2022-07-26T04:23:03;2.23;;;1.73;;
438;SDS011;206;48.782;9.252;2022-07-26T04:25:29;2.87;;;1.73;;
438;SDS011;206;48.782;9.252;2022-07-26T04:27:55;3.43;;;2.20;;
438;SDS011;206;48.782;9.252;2022-07-26T04:30:20;2.93;;;2.40;;
438;SDS011;206;48.782;9.252;2022-07-26T04:32:46;3.73;;;2.37;;
438;SDS011;206;48.782;9.252;2022-07-26T04:35:11;2.90;;;2.60;;
438;SDS011;206;48.782;9.252;2022-07-26T04:37:40;2.43;;;1.90;;
438;SDS011;206;48.782;9.252;2022-07-26T04:40:07;6.87;;;2.53;;
438;SDS011;206;48.782;9.252;2022-07-26T04:42:34;5.07;;;2.67;;
438;SDS011;206;48.782;9.252;2022-07-26T04:45:00;8.70;;;2.30;;
438;SDS011;206;48.782;9.252;2022-07-26T04:47:26;3.83;;;3.03;;
438;SDS011;206;48.782;9.252;2022-07-26T04:49:52;6.23;;;3.30;;
438;SDS011;206;48.782;9.252;2022-07-26T04:52:17;7.83;;;3.80;;
438;SDS011;206;48.782;9.252;2022-07-26T04:54:43;7.50;;;2.30;;
438;SDS011;206;48.782;9.252;2022-07-26T04:57:08;3.90;;;2.97;;
438;SDS011;206;48.782;9.252;2022-07-26T04:59:34;4.40;;;3.23;;
438;SDS011;206;48.782;9.252;2022-07-26T05:02:00;3.80;;;3.30;;
438;SDS011;206;48.782;9.252;2022-07-26T05:04:25;4.53;;;2.87;;
438;SDS011;206;48.782;9.252;2022-07-26T05:06:51;3.00;;;2.20;;
438;SDS011;206;48.782;9.252;2022-07-26T05:09:17;3.27;;;2.10;;
438;SDS011;206;48.782;9.252;2022-07-26T05:11:42;3.90;;;2.60;;
438;SDS011;206;48.782;9.252;2022-07-26T05:14:08;4.93;;;1.93;;
438;SDS011;206;48.782;9.252;2022-07-26T05:16:33;2.90;;;1.80;;
438;SDS011;206;48.782;9.252;2022-07-26T05:18:59;2.10;;;1.50;;
438;SDS011;206;48.782;9.252;2022-07-26T05:21:25;3.50;;;1.93;;
438;SDS011;206;48.782;9.252;2022-07-26T05:23:52;5.77;;;2.03;;
438;SDS011;206;48.782;9.252;2022-07-26T05:26:18;1.83;;;1.80;;
438;SDS011;206;48.782;9.252;2022-07-26T05:28:44;2.33;;;2.10;;
438;SDS011;206;48.782;9.252;2022-07-26T05:31:09;3.17;;;2.20;;
438;SDS011;206;48.782;9.252;2022-07-26T05:33:35;1.90;;;1.67;;
438;SDS011;206;48.782;9.252;2022-07-26T05:36:00;2.60;;;2.17;;
438;SDS011;206;48.782;9.252;2022-07-26T05:38:26;2.40;;;2.27;;
438;SDS011;206;48.782;9.252;2022-07-26T05:40:51;4.80;;;2.27;;
438;SDS011;206;48.782;9.252;2022-07-26T05:43:17;4.47;;;2.80;;
438;SDS011;206;48.782;9.252;2022-07-26T05:45:43;4.93;;;2.30;;
438;SDS011;206;48.782;9.252;2022-07-26T05:48:08;3.83;;;2.00;;
438;SDS011;206;48.782;9.252;2022-07-26T05:50:34;6.70;;;1.53;;
438;SDS011;206;48.782;9.252;2022-07-26T05:52:59;4.40;;;2.30;;
438;SDS011;206;48.782;9.252;2022-07-26T05:55:25;2.97;;;1.70;;
438;SDS011;206;48.782;9.252;2022-07-26T05:57:51;3.77;;;2.07;;
438;SDS011;206;48.782;9.252;2022-07-26T06:00:16;2.97;;;2.20;;
438;SDS011;206;48.782;9.252;2022-07-26T06:02:42;9.90;;;3.03;;
438;SDS011;206;48.782;9.252;2022-07-26T06:05:08;6.37;;;2.60;;
438;SDS011;206;48.782;9.252;2022-07-26T06:07:34;12.30;;;3.87;;
438;SDS011;206;48.782;9.252;2022-07-26T06:09:59;3.77;;;2.20;;
438;SDS011;206;48.782;9.252;2022-07-26T06:12:25;3.40;;;2.63;;
438;SDS011;206;48.782;9.252;2022-07-26T06:14:51;3.60;;;1.93;;
438;SDS011;206;48.782;9.252;2022-07-26T06:17:16;2.90;;;2.27;;
438;SDS011;206;48.782;9.252;2022-07-26T06:19:42;2.83;;;2.43;;
438;SDS011;206;48.782;9.252;2022-07-26T06:22:07;2.20;;;2.10;;
438;SDS011;206;48.782;9.252;2022-07-26T06:24:33;3.80;;;2.07;;
438;SDS011;206;48.782;9.252;2022-07-26T06:26:59;2.80;;;2.40;;
438;SDS011;206;48.782;9.252;2022-07-26T06:29:25;4.60;;;1.90;;
438;SDS011;206;48.782;9.252;2022-07-26T06:31:50;3.53;;;1.70;;
438;SDS011;206;48.782;9.252;2022-07-26T06:34:16;2.37;;;1.90;;
438;SDS011;206;48.782;9.252;2022-07-26T06:36:42;3.20;;;1.90;;
438;SDS011;206;48.782;9.252;2022-07-26T06:39:08;7.53;;;2.33;;
438;SDS011;206;48.782;9.252;2022-07-26T06:41:33;4.73;;;1.80;;
438;SDS011;206;48.782;9.252;2022-07-26T06:43:59;3.50;;;1.77;;
438;SDS011;206;48.782;9.252;2022-07-26T06:46:25;3.67;;;1.67;;
438;SDS011;206;48.782;9.252;2022-07-26T06:48:51;4.50;;;1.80;;
438;SDS011;206;48.782;9.252;2022-07-26T06:51:17;2.70;;;1.53;;
438;SDS011;206;48.782;9.252;2022-07-26T06:53:43;3.60;;;1.50;;
438;SDS011;206;48.782;9.252;2022-07-26T06:56:08;9.33;;;1.90;;
438;SDS011;206;48.782;9.252;2022-07-26T06:58:34;9.33;;;2.00;;
438;SDS011;206;48.782;9.252;2022-07-26T07:01:00;2.50;;;1.33;;
438;SDS011;206;48.782;9.252;2022-07-26T07:03:25;2.90;;;1.90;;
438;SDS011;206;48.782;9.252;2022-07-26T07:05:51;1.83;;;1.40;;
438;SDS011;206;48.782;9.252;2022-07-26T07:08:17;7.93;;;2.27;;
438;SDS011;206;48.782;9.252;2022-07-26T07:10:43;6.43;;;2.07;;
438;SDS011;206;48.782;9.252;2022-07-26T07:13:09;6.30;;;2.03;;
438;SDS011;206;48.782;9.252;2022-07-26T07:15:35;4.03;;;2.20;;
438;SDS011;206;48.782;9.252;2022-07-26T07:18:00;2.80;;;1.40;;
438;SDS011;206;48.782;9.252;2022-07-26T07:20:26;4.30;;;1.30;;
438;SDS011;206;48.782;9.252;2022-07-26T07:22:52;7.80;;;1.40;;
438;SDS011;206;48.782;9.252;2022-07-26T07:25:18;3.53;;;1.73;;
438;SDS011;206;48.782;9.252;2022-07-26T07:27:44;3.47;;;1.30;;
438;SDS011;206;48.782;9.252;2022-07-26T07:30:09;3.47;;;1.53;;
438;SDS011;206;48.782;9.252;2022-07-26T07:32:36;2.97;;;1.23;;
438;SDS011;206;48.782;9.252;2022-07-26T07:35:01;6.57;;;1.37;;
438;SDS011;206;48.782;9.252;2022-07-26T07:37:27;2.80;;;1.30;;
438;SDS011;206;48.782;9.252;2022-07-26T07:39:53;2.17;;;1.23;;
438;SDS011;206;48.782;9.252;2022-07-26T07:42:18;2.93;;;1.20;;
438;SDS011;206;48.782;9.252;2022-07-26T07:44:44;2.83;;;1.53;;
438;SDS011;206;48.782;9.252;2022-07-26T07:47:10;2.77;;;1.20;;
438;SDS011;206;48.782;9.252;2022-07-26T07:49:35;6.83;;;1.77;;
438;SDS011;206;48.782;9.252;2022-07-26T07:52:01;2.43;;;1.17;;
438;SDS011;206;48.782;9.252;2022-07-26T07:54:27;2.40;;;1.27;;
438;SDS011;206;48.782;9.252;2022-07-26T07:56:53;2.13;;;1.40;;
438;SDS011;206;48.782;9.252;2022-07-26T07:59:20;2.83;;;1.10;;
438;SDS011;206;48.782;9.252;2022-07-26T08:01:46;3.07;;;1.60;;
438;SDS011;206;48.782;9.252;2022-07-26T08:04:12;6.60;;;1.63;;
438;SDS011;206;48.782;9.252;2022-07-26T08:06:38;1.80;;;1.17;;
438;SDS011;206;48.782;9.252;2022-07-26T08:09:04;1.90;;;1.40;;
438;SDS011;206;48.782;9.252;2022-07-26T08:11:30;1.83;;;1.10;;
438;SDS011;206;48.782;9.252;2022-07-26T08:13:56;1.10;;;0.90;;
438;SDS011;206;48.782;9.252;2022-07-26T08:16:22;1.53;;;1.10;;
438;SDS011;206;48.782;9.252;2022-07-26T08:18:47;3.63;;;1.00;;
438;SDS011;206;48.782;9.252;2022-07-26T08:21:13;5.37;;;1.50;;
438;SDS011;206;48.782;9.252;2022-07-26T08:23:38;2.63;;;1.30;;
438;SDS011;206;48.782;9.252;2022-07-26T08:26:04;2.50;;;1.40;;
438;SDS011;206;48.782;9.252;2022-07-26T08:28:30;3.30;;;1.17;;
438;SDS011;206;48.782;9.252;2022-07-26T08:30:56;2.07;;;1.33;;
438;SDS011;206;48.782;9.252;2022-07-26T08:33:21;7.10;;;2.40;;
438;SDS011;206;48.782;9.252;2022-07-26T08:35:47;3.50;;;1.50;;
438;SDS011;206;48.782;9.252;2022-07-26T08:38:13;14.20;;;2.77;;
438;SDS011;206;48.782;9.252;2022-07-26T08:40:39;5.30;;;1.20;;
438;SDS011;206;48.782;9.252;2022-07-26T08:43:04;2.20;;;1.13;;
438;SDS011;206;48.782;9.252;2022-07-26T08:45:30;3.03;;;0.93;;
438;SDS011;206;48.782;9.252;2022-07-26T08:47:56;3.90;;;1.77;;
438;SDS011;206;48.782;9.252;2022-07-26T08:50:23;6.63;;;5.63;;
438;SDS011;206;48.782;9.252;2022-07-26T08:52:50;4.43;;;1.20;;
438;SDS011;206;48.782;9.252;2022-07-26T08:55:17;2.67;;;1.20;;
438;SDS011;206;48.782;9.252;2022-07-26T08:57:44;7.33;;;1.57;;
438;SDS011;206;48.782;9.252;2022-07-26T09:02:46;4.77;;;1.50;;
438;SDS011;206;48.782;9.252;2022-07-26T09:05:12;4.03;;;1.20;;
438;SDS011;206;48.782;9.252;2022-07-26T09:07:39;7.87;;;2.50;;
438;SDS011;206;48.782;9.252;2022-07-26T09:10:06;4.60;;;2.30;;
438;SDS011;206;48.782;9.252;2022-07-26T09:12:34;4.40;;;2.00;;
438;SDS011;206;48.782;9.252;2022-07-26T09:15:00;3.17;;;1.40;;
438;SDS011;206;48.782;9.252;2022-07-26T09:17:38;1.80;;;1.33;;
438;SDS011;206;48.782;9.252;2022-07-26T09:20:06;2.70;;;1.47;;
438;SDS011;206;48.782;9.252;2022-07-26T09:22:33;1.83;;;1.37;;
438;SDS011;206;48.782;9.252;2022-07-26T09:24:59;7.80;;;2.07;;
438;SDS011;206;48.782;9.252;2022-07-26T09:27:25;4.13;;;1.20;;
438;SDS011;206;48.782;9.252;2022-07-26T09:30:03;5.67;;;1.90;;
438;SDS011;206;48.782;9.252;2022-07-26T09:32:31;3.87;;;1.70;;
438;SDS011;206;48.782;9.252;2022-07-26T09:35:10;3.80;;;1.30;;
438;SDS011;206;48.782;9.252;2022-07-26T09:37:38;5.43;;;1.80;;
438;SDS011;206;48.782;9.252;2022-07-26T09:40:14;2.40;;;0.90;;
438;SDS011;206;48.782;9.252;2022-07-26T09:42:54;4.83;;;1.27;;
438;SDS011;206;48.782;9.252;2022-07-26T09:45:21;2.17;;;0.90;;
438;SDS011;206;48.782;9.252;2022-07-26T09:47:47;6.00;;;1.20;;
438;SDS011;206;48.782;9.252;2022-07-26T09:52:55;1.73;;;0.93;;
438;SDS011;206;48.782;9.252;2022-07-26T09:55:32;5.47;;;1.50;;
438;SDS011;206;48.782;9.252;2022-07-26T09:57:59;1.90;;;1.00;;
438;SDS011;206;48.782;9.252;2022-07-26T10:00:28;4.87;;;1.40;;
438;SDS011;206;48.782;9.252;2022-07-26T10:02:55;2.13;;;1.10;;
438;SDS011;206;48.782;9.252;2022-07-26T10:05:20;7.80;;;1.60;;
438;SDS011;206;48.782;9.252;2022-07-26T10:07:47;2.90;;;1.00;;
438;SDS011;206;48.782;9.252;2022-07-26T10:10:15;4.73;;;1.03;;
438;SDS011;206;48.782;9.252;2022-07-26T10:12:45;1.93;;;0.93;;
438;SDS011;206;48.782;9.252;2022-07-26T10:15:33;4.83;;;1.57;;
438;SDS011;206;48.782;9.252;2022-07-26T10:18:10;2.67;;;1.53;;
438;SDS011;206;48.782;9.252;2022-07-26T10:20:56;3.80;;;1.33;;
438;SDS011;206;48.782;9.252;2022-07-26T10:23:38;2.30;;;1.43;;
438;SDS011;206;48.782;9.252;2022-07-26T10:26:07;5.23;;;1.67;;
438;SDS011;206;48.782;9.252;2022-07-26T10:28:34;2.63;;;1.10;;
438;SDS011;206;48.782;9.252;2022-07-26T10:33:47;1.20;;;0.90;;
438;SDS011;206;48.782;9.252;2022-07-26T10:36:23;2.90;;;1.40;;
438;SDS011;206;48.782;9.252;2022-07-26T10:41:40;4.83;;;1.70;;
438;SDS011;206;48.782;9.252;2022-07-26T10:47:03;3.40;;;1.30;;
438;SDS011;206;48.782;9.252;2022-07-26T10:52:15;2.53;;;1.23;;
438;SDS011;206;48.782;9.252;2022-07-26T10:57:21;3.10;;;1.00;;
438;SDS011;206;48.782;9.252;2022-07-26T10:59:47;1.83;;;1.33;;
438;SDS011;206;48.782;9.252;2022-07-26T11:02:16;1.93;;;1.10;;
438;SDS011;206;48.782;9.252;2022-07-26T11:04:43;3.70;;;1.20;;
438;SDS011;206;48.782;9.252;2022-07-26T11:07:08;2.70;;;1.13;;
438;SDS011;206;48.782;9.252;2022-07-26T11:09:34;3.50;;;1.10;;
438;SDS011;206;48.782;9.252;2022-07-26T11:12:16;1.67;;;1.10;;
438;SDS011;206;48.782;9.252;2022-07-26T11:14:42;2.03;;;1.20;;
438;SDS011;206;48.782;9.252;2022-07-26T11:17:08;2.77;;;1.10;;
438;SDS011;206;48.782;9.252;2022-07-26T11:19:54;1.93;;;1.20;;
438;SDS011;206;48.782;9.252;2022-07-26T11:22:21;2.47;;;1.10;;
438;SDS011;206;48.782;9.252;2022-07-26T11:24:54;2.83;;;1.90;;
438;SDS011;206;48.782;9.252;2022-07-26T11:27:20;2.60;;;1.13;;
438;SDS011;206;48.782;9.252;2022-07-26T11:29:46;1.93;;;1.10;;
438;SDS011;206;48.782;9.252;2022-07-26T11:32:16;1.43;;;1.00;;
438;SDS011;206;48.782;9.252;2022-07-26T11:34:45;1.47;;;1.30;;
438;SDS011;206;48.782;9.252;2022-07-26T11:37:12;1.30;;;0.97;;
438;SDS011;206;48.782;9.252;2022-07-26T11:39:38;1.40;;;1.20;;
438;SDS011;206;48.782;9.252;2022-07-26T11:44:34;2.57;;;1.00;;
438;SDS011;206;48.782;9.252;2022-07-26T11:47:10;2.07;;;1.10;;
438;SDS011;206;48.782;9.252;2022-07-26T11:49:37;2.23;;;1.13;;
438;SDS011;206;48.782;9.252;2022-07-26T11:52:03;1.17;;;0.73;;
438;SDS011;206;48.782;9.252;2022-07-26T11:54:30;3.70;;;1.27;;
438;SDS011;206;48.782;9.252;2022-07-26T11:59:28;1.83;;;1.20;;
438;SDS011;206;48.782;9.252;2022-07-26T12:01:56;4.93;;;1.63;;
438;SDS011;206;48.782;9.252;2022-07-26T12:04:23;7.80;;;2.30;;
438;SDS011;206;48.782;9.252;2022-07-26T12:06:51;1.70;;;1.03;;
438;SDS011;206;48.782;9.252;2022-07-26T12:11:59;1.47;;;1.07;;
438;SDS011;206;48.782;9.252;2022-07-26T12:14:33;3.13;;;1.23;;
438;SDS011;206;48.782;9.252;2022-07-26T12:17:16;2.87;;;1.30;;
438;SDS011;206;48.782;9.252;2022-07-26T12:19:42;2.13;;;1.33;;
438;SDS011;206;48.782;9.252;2022-07-26T12:22:10;2.80;;;1.47;;
438;SDS011;206;48.782;9.252;2022-07-26T12:27:12;3.13;;;1.23;;
438;SDS011;206;48.782;9.252;2022-07-26T12:29:50;1.77;;;1.10;;
438;SDS011;206;48.782;9.252;2022-07-26T12:35:16;1.47;;;0.90;;
438;SDS011;206;48.782;9.252;2022-07-26T12:37:49;1.53;;;0.83;;
438;SDS011;206;48.782;9.252;2022-07-26T12:40:19;1.67;;;0.93;;
438;SDS011;206;48.782;9.252;2022-07-26T12:45:16;1.23;;;0.90;;
438;SDS011;206;48.782;9.252;2022-07-26T12:47:44;3.90;;;0.77;;
438;SDS011;206;48.782;9.252;2022-07-26T12:50:11;4.33;;;1.17;;
438;SDS011;206;48.782;9.252;2022-07-26T12:52:38;1.10;;;0.87;;
438;SDS011;206;48.782;9.252;2022-07-26T12:55:06;2.30;;;0.83;;
438;SDS011;206;48.782;9.252;2022-07-26T12:57:34;1.63;;;0.80;;
438;SDS011;206;48.782;9.252;2022-07-26T13:00:00;3.37;;;0.83;;
438;SDS011;206;48.782;9.252;2022-07-26T13:02:25;3.20;;;0.97;;
438;SDS011;206;48.782;9.252;2022-07-26T13:04:51;3.73;;;1.80;;
438;SDS011;206;48.782;9.252;2022-07-26T13:07:18;3.20;;;1.33;;
438;SDS011;206;48.782;9.252;2022-07-26T13:09:44;1.70;;;1.13;;
438;SDS011;206;48.782;9.252;2022-07-26T13:12:11;5.17;;;0.90;;
438;SDS011;206;48.782;9.252;2022-07-26T13:14:37;3.77;;;1.00;;
438;SDS011;206;48.782;9.252;2022-07-26T13:17:04;2.60;;;0.93;;
438;SDS011;206;48.782;9.252;2022-07-26T13:19:30;2.53;;;1.20;;
438;SDS011;206;48.782;9.252;2022-07-26T13:21:57;1.73;;;1.00;;
438;SDS011;206;48.782;9.252;2022-07-26T13:24:24;2.97;;;1.10;;
438;SDS011;206;48.782;9.252;2022-07-26T13:26:50;11.73;;;1.10;;
438;SDS011;206;48.782;9.252;2022-07-26T13:29:17;4.13;;;0.93;;
438;SDS011;206;48.782;9.252;2022-07-26T13:31:43;4.83;;;1.60;;
438;SDS011;206;48.782;9.252;2022-07-26T13:34:09;2.53;;;1.23;;
438;SDS011;206;48.782;9.252;2022-07-26T13:36:35;2.70;;;0.90;;
438;SDS011;206;48.782;9.252;2022-07-26T13:39:00;2.40;;;1.43;;
438;SDS011;206;48.782;9.252;2022-07-26T13:41:27;3.37;;;1.10;;
438;SDS011;206;48.782;9.252;2022-07-26T13:43:53;4.47;;;0.97;;
438;SDS011;206;48.782;9.252;2022-07-26T13:46:19;2.40;;;0.90;;
438;SDS011;206;48.782;9.252;2022-07-26T13:48:46;2.50;;;0.93;;
438;SDS011;206;48.782;9.252;2022-07-26T13:51:12;5.60;;;1.17;;
438;SDS011;206;48.782;9.252;2022-07-26T13:53:37;2.70;;;1.10;;
438;SDS011;206;48.782;9.252;2022-07-26T13:56:03;2.30;;;1.00;;
438;SDS011;206;48.782;9.252;2022-07-26T13:58:29;2.57;;;1.10;;
438;SDS011;206;48.782;9.252;2022-07-26T14:00:56;1.37;;;1.10;;
438;SDS011;206;48.782;9.252;2022-07-26T14:03:22;1.90;;;0.83;;
438;SDS011;206;48.782;9.252;2022-07-26T14:05:48;1.50;;;1.00;;
438;SDS011;206;48.782;9.252;2022-07-26T14:08:14;1.20;;;1.00;;
438;SDS011;206;48.782;9.252;2022-07-26T14:10:40;1.67;;;0.70;;
438;SDS011;206;48.782;9.252;2022-07-26T14:13:06;1.27;;;1.07;;
438;SDS011;206;48.782;9.252;2022-07-26T14:15:33;1.83;;;0.93;;
438;SDS011;206;48.782;9.252;2022-07-26T14:17:59;5.00;;;1.33;;
438;SDS011;206;48.782;9.252;2022-07-26T14:20:25;2.93;;;1.00;;
438;SDS011;206;48.782;9.252;2022-07-26T14:22:51;4.20;;;0.73;;
438;SDS011;206;48.782;9.252;2022-07-26T14:25:18;5.20;;;1.20;;
438;SDS011;206;48.782;9.252;2022-07-26T14:27:44;1.17;;;0.87;;
438;SDS011;206;48.782;9.252;2022-07-26T14:30:10;1.43;;;0.90;;
438;SDS011;206;48.782;9.252;2022-07-26T14:32:36;2.40;;;1.20;;
438;SDS011;206;48.782;9.252;2022-07-26T14:35:02;1.33;;;0.87;;
438;SDS011;206;48.782;9.252;2022-07-26T14:37:29;4.60;;;0.90;;
438;SDS011;206;48.782;9.252;2022-07-26T14:39:54;1.13;;;0.83;;
438;SDS011;206;48.782;9.252;2022-07-26T14:42:20;1.20;;;0.90;;
438;SDS011;206;48.782;9.252;2022-07-26T14:44:45;1.57;;;1.07;;
438;SDS011;206;48.782;9.252;2022-07-26T14:47:11;3.00;;;1.20;;
438;SDS011;206;48.782;9.252;2022-07-26T14:49:36;3.33;;;1.00;;
438;SDS011;206;48.782;9.252;2022-07-26T14:52:02;3.13;;;1.43;;
438;SDS011;206;48.782;9.252;2022-07-26T14:54:28;2.20;;;1.50;;
438;SDS011;206;48.782;9.252;2022-07-26T14:56:53;3.33;;;1.47;;
438;SDS011;206;48.782;9.252;2022-07-26T14:59:19;1.33;;;0.80;;
438;SDS011;206;48.782;9.252;2022-07-26T15:01:45;4.77;;;1.07;;
438;SDS011;206;48.782;9.252;2022-07-26T15:04:10;1.70;;;1.30;;
438;SDS011;206;48.782;9.252;2022-07-26T15:06:36;3.57;;;0.70;;
438;SDS011;206;48.782;9.252;2022-07-26T15:09:02;3.03;;;1.13;;
438;SDS011;206;48.782;9.252;2022-07-26T15:11:28;1.27;;;0.87;;
438;SDS011;206;48.782;9.252;2022-07-26T15:13:54;1.20;;;0.90;;
438;SDS011;206;48.782;9.252;2022-07-26T15:16:19;3.47;;;0.87;;
438;SDS011;206;48.782;9.252;2022-07-26T15:18:45;2.60;;;1.00;;
438;SDS011;206;48.782;9.252;2022-07-26T15:21:10;3.23;;;1.30;;
438;SDS011;206;48.782;9.252;2022-07-26T15:23:38;1.90;;;0.93;;
438;SDS011;206;48.782;9.252;2022-07-26T15:26:04;3.20;;;1.13;;
438;SDS011;206;48.782;9.252;2022-07-26T15:28:29;2.93;;;0.93;;
438;SDS011;206;48.782;9.252;2022-07-26T15:30:55;3.90;;;1.00;;
438;SDS011;206;48.782;9.252;2022-07-26T15:33:21;1.40;;;1.00;;
438;SDS011;206;48.782;9.252;2022-07-26T15:35:46;3.47;;;1.10;;
438;SDS011;206;48.782;9.252;2022-07-26T15:38:13;2.80;;;1.50;;
438;SDS011;206;48.782;9.252;2022-07-26T15:40:39;1.07;;;0.70;;
438;SDS011;206;48.782;9.252;2022-07-26T15:43:04;1.87;;;0.97;;
438;SDS011;206;48.782;9.252;2022-07-26T15:45:30;0.90;;;0.80;;
438;SDS011;206;48.782;9.252;2022-07-26T15:47:55;2.60;;;0.80;;
438;SDS011;206;48.782;9.252;2022-07-26T15:50:24;0.80;;;0.70;;
438;SDS011;206;48.782;9.252;2022-07-26T15:52:50;1.17;;;0.87;;
438;SDS011;206;48.782;9.252;2022-07-26T15:55:16;1.67;;;1.30;;
438;SDS011;206;48.782;9.252;2022-07-26T15:57:43;2.17;;;1.37;;
438;SDS011;206;48.782;9.252;2022-07-26T16:00:10;2.53;;;0.90;;
438;SDS011;206;48.782;9.252;2022-07-26T16:02:37;1.33;;;0.90;;
438;SDS011;206;48.782;9.252;2022-07-26T16:05:04;0.90;;;0.73;;
438;SDS011;206;48.782;9.252;2022-07-26T16:07:31;1.70;;;0.93;;
438;SDS011;206;48.782;9.252;2022-07-26T16:09:56;1.33;;;0.80;;
438;SDS011;206;48.782;9.252;2022-07-26T16:12:22;4.50;;;1.17;;
438;SDS011;206;48.782;9.252;2022-07-26T16:14:48;1.70;;;1.23;;
438;SDS011;206;48.782;9.252;2022-07-26T16:17:13;1.93;;;1.30;;